createdAt,value
2019-05-14T00:00:26.171Z,0.00
2019-05-14T00:01:26.161Z,0.00
2019-05-14T00:02:28.835Z,0.00
2019-05-14T00:03:26.169Z,0.00
2019-05-14T00:04:26.185Z,0.00
2019-05-14T00:05:26.195Z,0.00
2019-05-14T00:06:26.207Z,0.00
2019-05-14T00:07:27.611Z,0.00
2019-05-14T00:08:26.564Z,0.00
2019-05-14T00:09:26.245Z,0.00
2019-05-14T00:11:26.463Z,0.00
2019-05-14T00:12:26.281Z,0.00
2019-05-14T00:13:26.311Z,0.00
2019-05-14T00:14:38.759Z,0.00
2019-05-14T00:15:26.323Z,0.00
2019-05-14T00:16:26.334Z,0.00
2019-05-14T00:17:26.365Z,0.00
2019-05-14T00:18:26.667Z,0.00
2019-05-14T00:19:26.653Z,0.00
2019-05-14T00:20:26.433Z,0.00
2019-05-14T00:21:26.409Z,0.00
2019-05-14T00:22:26.437Z,0.00
2019-05-14T00:23:26.440Z,0.00
2019-05-14T00:24:26.554Z,0.00
2019-05-14T00:25:26.460Z,0.00
2019-05-14T00:26:26.480Z,0.00
2019-05-14T00:27:26.491Z,0.00
2019-05-14T00:28:26.514Z,0.00
2019-05-14T00:29:26.527Z,0.00
2019-05-14T00:30:26.549Z,0.00
2019-05-14T00:31:26.642Z,0.00
2019-05-14T00:32:26.658Z,0.00
2019-05-14T00:33:26.575Z,0.00
2019-05-14T00:34:26.593Z,0.00
2019-05-14T00:35:26.600Z,0.00
2019-05-14T00:36:26.610Z,0.00
2019-05-14T00:37:26.739Z,0.00
2019-05-14T00:38:26.651Z,0.00
2019-05-14T00:39:26.654Z,0.00
2019-05-14T00:40:26.681Z,0.00
2019-05-14T00:41:26.685Z,0.00
2019-05-14T00:42:26.709Z,0.00
2019-05-14T00:43:26.707Z,0.00
2019-05-14T00:44:26.788Z,0.00
2019-05-14T00:45:26.902Z,0.00
2019-05-14T00:46:26.805Z,0.00
2019-05-14T00:47:26.763Z,0.00
2019-05-14T00:48:26.779Z,0.00
2019-05-14T00:49:26.790Z,0.00
2019-05-14T00:50:26.915Z,0.00
2019-05-14T00:51:26.823Z,0.00
2019-05-14T00:52:26.952Z,0.00
2019-05-14T00:53:26.882Z,0.00
2019-05-14T00:54:26.873Z,0.00
2019-05-14T00:55:27.031Z,0.00
2019-05-14T00:56:26.888Z,0.00
2019-05-14T00:57:26.905Z,0.00
2019-05-14T00:58:27.052Z,0.00
2019-05-14T00:59:27.065Z,0.00
2019-05-14T01:00:26.944Z,0.00
2019-05-14T01:01:26.960Z,0.00
2019-05-14T01:02:26.998Z,0.00
2019-05-14T01:03:26.988Z,0.00
2019-05-14T01:04:27.122Z,0.00
2019-05-14T01:05:27.023Z,0.00
2019-05-14T01:06:27.027Z,0.00
2019-05-14T01:07:27.047Z,0.00
2019-05-14T01:08:27.058Z,0.00
2019-05-14T01:09:27.092Z,0.00
2019-05-14T01:10:27.088Z,0.00
2019-05-14T01:11:27.094Z,0.00
2019-05-14T01:12:27.191Z,0.00
2019-05-14T01:13:27.125Z,0.00
2019-05-14T01:14:27.145Z,0.00
2019-05-14T01:15:27.157Z,0.00
2019-05-14T01:16:27.168Z,0.00
2019-05-14T01:17:27.192Z,0.00
2019-05-14T01:18:27.193Z,0.00
2019-05-14T01:19:27.214Z,0.00
2019-05-14T01:20:27.233Z,0.00
2019-05-14T01:21:27.475Z,0.00
2019-05-14T01:22:27.283Z,0.00
2019-05-14T01:23:27.265Z,0.00
2019-05-14T01:24:27.275Z,0.00
2019-05-14T01:25:27.297Z,0.00
2019-05-14T01:26:27.308Z,0.00
2019-05-14T01:27:27.368Z,0.00
2019-05-14T01:28:27.352Z,0.00
2019-05-14T01:29:27.373Z,0.00
2019-05-14T01:30:27.369Z,0.00
2019-05-14T01:31:27.419Z,0.00
2019-05-14T01:32:27.487Z,0.00
2019-05-14T01:33:27.418Z,0.00
2019-05-14T01:34:27.413Z,0.00
2019-05-14T01:35:27.429Z,0.00
2019-05-14T01:36:27.444Z,0.00
2019-05-14T01:37:27.455Z,0.00
2019-05-14T01:38:27.494Z,0.00
2019-05-14T01:39:27.515Z,0.00
2019-05-14T01:40:27.498Z,0.00
2019-05-14T01:41:27.530Z,0.00
2019-05-14T01:42:27.620Z,0.00
2019-05-14T01:43:27.535Z,0.00
2019-05-14T01:44:27.549Z,0.00
2019-05-14T01:45:28.461Z,0.00
2019-05-14T01:46:27.575Z,0.00
2019-05-14T01:47:27.597Z,0.00
2019-05-14T01:48:27.601Z,0.00
2019-05-14T01:49:27.616Z,0.00
2019-05-14T01:50:27.631Z,0.00
2019-05-14T01:51:27.657Z,0.00
2019-05-14T01:52:27.662Z,0.00
2019-05-14T01:53:27.679Z,0.00
2019-05-14T01:54:27.708Z,0.00
2019-05-14T01:55:27.816Z,0.00
2019-05-14T01:56:27.785Z,0.00
2019-05-14T01:57:27.757Z,0.00
2019-05-14T01:58:27.746Z,0.00
2019-05-14T01:59:27.758Z,0.00
2019-05-14T02:00:27.770Z,0.00
2019-05-14T02:01:27.783Z,0.00
2019-05-14T02:02:27.802Z,0.00
2019-05-14T02:03:27.805Z,0.00
2019-05-14T02:04:27.819Z,0.00
2019-05-14T02:05:27.842Z,0.00
2019-05-14T02:06:27.851Z,0.00
2019-05-14T02:07:27.866Z,0.00
2019-05-14T02:08:27.902Z,0.00
2019-05-14T02:09:27.889Z,0.00
2019-05-14T02:10:27.911Z,0.00
2019-05-14T02:11:27.917Z,0.00
2019-05-14T02:12:27.932Z,0.00
2019-05-14T02:13:27.955Z,0.00
2019-05-14T02:14:27.957Z,0.00
2019-05-14T02:15:37.210Z,0.00
2019-05-14T02:16:27.985Z,0.00
2019-05-14T02:17:27.996Z,0.00
2019-05-14T02:18:28.019Z,0.00
2019-05-14T02:19:28.033Z,0.00
2019-05-14T02:20:28.045Z,0.00
2019-05-14T02:21:28.050Z,0.00
2019-05-14T02:22:28.063Z,0.00
2019-05-14T02:23:28.111Z,0.00
2019-05-14T02:24:28.147Z,0.00
2019-05-14T02:25:28.145Z,0.00
2019-05-14T02:26:28.117Z,0.00
2019-05-14T02:27:28.135Z,0.00
2019-05-14T02:28:28.148Z,0.00
2019-05-14T02:29:28.201Z,0.00
2019-05-14T02:30:41.400Z,0.00
2019-05-14T02:31:29.241Z,0.00
2019-05-14T02:32:29.830Z,0.00
2019-05-14T02:33:30.658Z,0.00
2019-05-14T02:34:29.957Z,0.00
2019-05-14T02:35:29.855Z,0.00
2019-05-14T02:36:30.898Z,0.00
2019-05-14T02:37:30.142Z,0.00
2019-05-14T02:38:29.964Z,0.00
2019-05-14T02:39:29.171Z,0.00
2019-05-14T02:40:29.442Z,0.00
2019-05-14T02:41:29.967Z,0.00
2019-05-14T02:42:29.128Z,0.00
2019-05-14T02:43:29.285Z,0.00
2019-05-14T02:44:29.749Z,0.00
2019-05-14T02:45:30.374Z,4.00
2019-05-14T02:46:29.548Z,4.00
2019-05-14T02:47:29.900Z,4.00
2019-05-14T02:48:29.257Z,4.00
2019-05-14T02:49:30.094Z,4.00
2019-05-14T02:50:29.564Z,4.00
2019-05-14T02:51:30.049Z,4.00
2019-05-14T02:52:29.124Z,4.00
2019-05-14T02:53:29.740Z,4.00
2019-05-14T02:54:29.691Z,4.00
2019-05-14T02:55:29.990Z,4.00
2019-05-14T02:56:29.573Z,4.00
2019-05-14T02:57:30.370Z,4.00
2019-05-14T02:58:29.811Z,4.00
2019-05-14T02:59:30.469Z,4.00
2019-05-14T03:00:30.158Z,4.00
2019-05-14T03:01:30.207Z,4.00
2019-05-14T03:02:29.664Z,4.00
2019-05-14T03:03:29.901Z,0.00
2019-05-14T03:04:29.969Z,0.00
2019-05-14T03:05:29.479Z,4.00
2019-05-14T03:06:29.283Z,4.00
2019-05-14T03:07:29.853Z,4.00
2019-05-14T03:08:30.354Z,4.00
2019-05-14T03:09:29.569Z,4.00
2019-05-14T03:10:30.212Z,4.00
2019-05-14T03:11:29.633Z,4.00
2019-05-14T03:12:30.286Z,4.00
2019-05-14T03:13:29.597Z,4.00
2019-05-14T03:14:30.124Z,8.00
2019-05-14T03:15:29.351Z,8.00
2019-05-14T03:16:32.512Z,8.00
2019-05-14T03:17:29.957Z,4.00
2019-05-14T03:18:29.705Z,8.00
2019-05-14T03:19:29.793Z,8.00
2019-05-14T03:20:29.263Z,8.00
2019-05-14T03:21:30.390Z,12.00
2019-05-14T03:22:42.814Z,12.00
2019-05-14T03:23:30.198Z,12.00
2019-05-14T03:24:28.999Z,16.00
2019-05-14T03:25:30.032Z,16.00
2019-05-14T03:26:29.697Z,16.00
2019-05-14T03:27:30.344Z,20.00
2019-05-14T03:28:30.321Z,20.00
2019-05-14T03:29:30.702Z,16.00
2019-05-14T03:30:32.432Z,16.00
2019-05-14T03:31:33.300Z,20.00
2019-05-14T03:32:32.957Z,24.00
2019-05-14T03:33:33.384Z,24.00
2019-05-14T03:34:32.875Z,28.00
2019-05-14T03:35:40.104Z,28.00
2019-05-14T03:36:34.922Z,32.00
2019-05-14T03:37:30.926Z,36.00
2019-05-14T03:38:29.767Z,36.00
2019-05-14T03:39:29.700Z,44.00
2019-05-14T03:40:29.456Z,44.00
2019-05-14T03:41:30.574Z,52.00
2019-05-14T03:42:29.515Z,56.00
2019-05-14T03:43:29.717Z,60.00
2019-05-14T03:44:29.349Z,68.00
2019-05-14T03:45:30.103Z,72.00
2019-05-14T03:46:44.706Z,84.00
2019-05-14T03:47:29.842Z,92.00
2019-05-14T03:48:29.776Z,100.00
2019-05-14T03:49:29.223Z,104.00
2019-05-14T03:50:29.896Z,112.00
2019-05-14T03:51:29.947Z,128.00
2019-05-14T03:52:29.612Z,136.00
2019-05-14T03:53:29.770Z,152.00
2019-05-14T03:54:30.002Z,168.00
2019-05-14T03:55:29.472Z,184.00
2019-05-14T03:56:29.823Z,204.00
2019-05-14T03:57:29.434Z,220.00
2019-05-14T03:58:30.362Z,236.00
2019-05-14T03:59:29.526Z,252.00
2019-05-14T04:00:29.454Z,264.00
2019-05-14T04:01:29.913Z,280.00
2019-05-14T04:02:29.836Z,292.00
2019-05-14T04:03:29.714Z,308.00
2019-05-14T04:04:30.048Z,324.00
2019-05-14T04:05:29.588Z,348.00
2019-05-14T04:06:30.224Z,364.00
2019-05-14T04:07:30.418Z,384.00
2019-05-14T04:08:29.689Z,404.00
2019-05-14T04:09:29.529Z,424.00
2019-05-14T04:10:30.135Z,444.00
2019-05-14T04:11:29.656Z,460.00
2019-05-14T04:12:29.632Z,480.00
2019-05-14T04:13:30.427Z,496.00
2019-05-14T04:14:29.594Z,508.00
2019-05-14T04:15:29.962Z,524.00
2019-05-14T04:16:29.586Z,536.00
2019-05-14T04:17:37.051Z,552.00
2019-05-14T04:18:29.660Z,568.00
2019-05-14T04:19:29.810Z,584.00
2019-05-14T04:20:29.895Z,608.00
2019-05-14T04:21:30.124Z,632.00
2019-05-14T04:22:30.011Z,652.00
2019-05-14T04:23:29.666Z,680.00
2019-05-14T04:24:29.802Z,716.00
2019-05-14T04:25:29.761Z,724.00
2019-05-14T04:26:30.325Z,724.00
2019-05-14T04:27:30.128Z,736.00
2019-05-14T04:28:30.020Z,752.00
2019-05-14T04:29:30.808Z,764.00
2019-05-14T04:30:29.874Z,776.00
2019-05-14T04:31:29.967Z,760.00
2019-05-14T04:33:30.792Z,936.00
2019-05-14T04:34:31.128Z,1136.00
2019-05-14T04:35:30.069Z,1132.00
2019-05-14T04:36:30.385Z,1108.00
2019-05-14T04:37:30.064Z,1304.00
2019-05-14T04:38:30.319Z,1592.00
2019-05-14T04:39:30.959Z,1532.00
2019-05-14T04:40:29.932Z,1112.00
2019-05-14T04:41:30.249Z,972.00
2019-05-14T04:42:29.973Z,856.00
2019-05-14T04:43:30.091Z,880.00
2019-05-14T04:44:30.147Z,916.00
2019-05-14T04:45:29.988Z,956.00
2019-05-14T04:47:36.083Z,956.00
2019-05-14T04:48:37.098Z,952.00
2019-05-14T04:49:30.009Z,956.00
2019-05-14T04:50:30.165Z,1012.00
2019-05-14T04:51:30.549Z,1092.00
2019-05-14T04:52:30.054Z,1052.00
2019-05-14T04:53:31.100Z,996.00
2019-05-14T04:54:30.558Z,1008.00
2019-05-14T04:55:30.110Z,1028.00
2019-05-14T04:56:30.560Z,1044.00
2019-05-14T04:57:30.314Z,1064.00
2019-05-14T04:58:30.266Z,1076.00
2019-05-14T04:59:30.272Z,1092.00
2019-05-14T05:00:30.848Z,1100.00
2019-05-14T05:01:30.182Z,1116.00
2019-05-14T05:02:30.515Z,1132.00
2019-05-14T05:03:31.272Z,1136.00
2019-05-14T05:04:30.445Z,1152.00
2019-05-14T05:05:30.237Z,1164.00
2019-05-14T05:06:30.259Z,1176.00
2019-05-14T05:07:30.247Z,1184.00
2019-05-14T05:08:30.962Z,1188.00
2019-05-14T05:10:30.338Z,1204.00
2019-05-14T05:11:30.305Z,1060.00
2019-05-14T05:12:30.326Z,1092.00
2019-05-14T05:13:30.344Z,1076.00
2019-05-14T05:14:30.338Z,1124.00
2019-05-14T05:15:30.353Z,1236.00
2019-05-14T05:16:30.369Z,1260.00
2019-05-14T05:17:42.723Z,1280.00
2019-05-14T05:18:31.091Z,1288.00
2019-05-14T05:19:30.412Z,1276.00
2019-05-14T05:20:30.509Z,1280.00
2019-05-14T05:21:30.433Z,1304.00
2019-05-14T05:22:30.447Z,1328.00
2019-05-14T05:23:30.479Z,1352.00
2019-05-14T05:24:30.515Z,1376.00
2019-05-14T05:25:30.633Z,1400.00
2019-05-14T05:26:30.560Z,1428.00
2019-05-14T05:27:30.512Z,1440.00
2019-05-14T05:28:31.355Z,1444.00
2019-05-14T05:29:31.328Z,1444.00
2019-05-14T05:30:31.575Z,1456.00
2019-05-14T05:31:30.672Z,1464.00
2019-05-14T05:32:30.636Z,1448.00
2019-05-14T05:33:30.619Z,1400.00
2019-05-14T05:34:31.055Z,1416.00
2019-05-14T05:36:30.641Z,1400.00
2019-05-14T05:37:30.813Z,1328.00
2019-05-14T05:38:30.682Z,1348.00
2019-05-14T05:39:30.684Z,1408.00
2019-05-14T05:40:30.701Z,1508.00
2019-05-14T05:41:30.711Z,1552.00
2019-05-14T05:42:30.760Z,1512.00
2019-05-14T05:43:30.845Z,1492.00
2019-05-14T05:44:30.752Z,1492.00
2019-05-14T05:45:30.817Z,1604.00
2019-05-14T05:46:30.781Z,1648.00
2019-05-14T05:47:30.792Z,1652.00
2019-05-14T05:48:30.909Z,1652.00
2019-05-14T05:49:30.931Z,1660.00
2019-05-14T05:50:30.835Z,1676.00
2019-05-14T05:51:30.918Z,1696.00
2019-05-14T05:52:30.860Z,1704.00
2019-05-14T05:53:30.874Z,1712.00
2019-05-14T05:54:30.893Z,1724.00
2019-05-14T05:55:30.906Z,1744.00
2019-05-14T05:56:30.924Z,1748.00
2019-05-14T05:57:30.950Z,1752.00
2019-05-14T05:58:30.941Z,1760.00
2019-05-14T05:59:30.958Z,1772.00
2019-05-14T06:00:30.993Z,1784.00
2019-05-14T06:01:42.182Z,1800.00
2019-05-14T06:02:30.986Z,1748.00
2019-05-14T06:03:31.012Z,1816.00
2019-05-14T06:04:31.023Z,1816.00
2019-05-14T06:05:31.135Z,1820.00
2019-05-14T06:07:31.076Z,1848.00
2019-05-14T06:08:31.566Z,1852.00
2019-05-14T06:09:31.080Z,1868.00
2019-05-14T06:10:31.108Z,1880.00
2019-05-14T06:11:31.154Z,1884.00
2019-05-14T06:12:31.146Z,1896.00
2019-05-14T06:13:31.136Z,1896.00
2019-05-14T06:14:31.152Z,1920.00
2019-05-14T06:15:44.652Z,1924.00
2019-05-14T06:16:31.685Z,1932.00
2019-05-14T06:17:31.191Z,1936.00
2019-05-14T06:18:34.292Z,1940.00
2019-05-14T06:19:31.267Z,1956.00
2019-05-14T06:20:31.231Z,1964.00
2019-05-14T06:21:31.259Z,1972.00
2019-05-14T06:22:31.260Z,1996.00
2019-05-14T06:23:31.279Z,2008.00
2019-05-14T06:24:31.583Z,2016.00
2019-05-14T06:25:31.533Z,2024.00
2019-05-14T06:26:31.326Z,2020.00
2019-05-14T06:27:31.346Z,2044.00
2019-05-14T06:28:33.549Z,2048.00
2019-05-14T06:29:31.366Z,2060.00
2019-05-14T06:30:31.384Z,2068.00
2019-05-14T06:31:31.399Z,2084.00
2019-05-14T06:32:31.412Z,2096.00
2019-05-14T06:33:31.410Z,2100.00
2019-05-14T06:34:31.430Z,2104.00
2019-05-14T06:35:31.703Z,2116.00
2019-05-14T06:36:31.446Z,2140.00
2019-05-14T06:37:31.466Z,2148.00
2019-05-14T06:38:31.481Z,2172.00
2019-05-14T06:39:31.488Z,2188.00
2019-05-14T06:40:31.503Z,2192.00
2019-05-14T06:41:31.520Z,2216.00
2019-05-14T06:42:31.531Z,2232.00
2019-05-14T06:43:31.545Z,2260.00
2019-05-14T06:44:31.573Z,2276.00
2019-05-14T06:45:31.583Z,2288.00
2019-05-14T06:46:31.895Z,2304.00
2019-05-14T06:47:31.607Z,2312.00
2019-05-14T06:48:34.682Z,2340.00
2019-05-14T06:49:31.631Z,2336.00
2019-05-14T06:50:31.649Z,2356.00
2019-05-14T06:51:31.653Z,2376.00
2019-05-14T06:52:31.678Z,2400.00
2019-05-14T06:53:31.700Z,2436.00
2019-05-14T06:54:31.717Z,2464.00
2019-05-14T06:55:31.710Z,2492.00
2019-05-14T06:56:31.732Z,2520.00
2019-05-14T06:57:31.743Z,2520.00
2019-05-14T06:58:31.754Z,2560.00
2019-05-14T06:59:31.763Z,2608.00
2019-05-14T07:00:31.779Z,2664.00
2019-05-14T07:01:31.810Z,2688.00
2019-05-14T07:02:31.839Z,2736.00
2019-05-14T07:03:31.827Z,2728.00
2019-05-14T07:04:31.836Z,2632.00
2019-05-14T07:05:31.850Z,2384.00
2019-05-14T07:06:31.931Z,2600.00
2019-05-14T07:07:31.878Z,2724.00
2019-05-14T07:08:31.886Z,2768.00
2019-05-14T07:09:31.923Z,2768.00
2019-05-14T07:10:31.926Z,2772.00
2019-05-14T07:11:31.935Z,2760.00
2019-05-14T07:12:31.945Z,2744.00
2019-05-14T07:13:31.964Z,2744.00
2019-05-14T07:14:31.976Z,2720.00
2019-05-14T07:15:32.006Z,2712.00
2019-05-14T07:16:32.001Z,2712.00
2019-05-14T07:17:32.051Z,2708.00
2019-05-14T07:18:45.728Z,2676.00
2019-05-14T07:19:32.048Z,2660.00
2019-05-14T07:20:32.060Z,2504.00
2019-05-14T07:21:32.074Z,2556.00
2019-05-14T07:22:32.088Z,2728.00
2019-05-14T07:23:32.113Z,2608.00
2019-05-14T07:24:32.122Z,2648.00
2019-05-14T07:25:32.130Z,2656.00
2019-05-14T07:26:32.154Z,2656.00
2019-05-14T07:27:32.162Z,2660.00
2019-05-14T07:28:32.170Z,2660.00
2019-05-14T07:29:32.188Z,2648.00
2019-05-14T07:30:32.205Z,2648.00
2019-05-14T07:31:32.222Z,2644.00
2019-05-14T07:32:32.242Z,2652.00
2019-05-14T07:33:32.959Z,2644.00
2019-05-14T07:35:32.380Z,2656.00
2019-05-14T07:36:32.827Z,2660.00
2019-05-14T07:37:32.592Z,2640.00
2019-05-14T07:38:32.914Z,2648.00
2019-05-14T07:39:32.335Z,2680.00
2019-05-14T07:40:32.521Z,2656.00
2019-05-14T07:41:33.010Z,2700.00
2019-05-14T07:43:32.510Z,2712.00
2019-05-14T07:44:32.399Z,2720.00
2019-05-14T07:45:33.404Z,2724.00
2019-05-14T07:46:32.506Z,2724.00
2019-05-14T07:47:32.455Z,2740.00
2019-05-14T07:48:32.462Z,2756.00
2019-05-14T07:49:32.475Z,2760.00
2019-05-14T07:51:33.622Z,2780.00
2019-05-14T07:52:32.519Z,2788.00
2019-05-14T07:53:38.758Z,2804.00
2019-05-14T07:54:32.554Z,2820.00
2019-05-14T07:55:32.611Z,2844.00
2019-05-14T07:56:32.573Z,2852.00
2019-05-14T07:57:32.601Z,2856.00
2019-05-14T07:58:32.615Z,2912.00
2019-05-14T07:59:32.618Z,2944.00
2019-05-14T08:00:32.638Z,2912.00
2019-05-14T08:01:32.660Z,2876.00
2019-05-14T08:02:32.686Z,2868.00
2019-05-14T08:03:32.677Z,2876.00
2019-05-14T08:04:32.711Z,2892.00
2019-05-14T08:05:32.713Z,2892.00
2019-05-14T08:06:32.721Z,2896.00
2019-05-14T08:07:32.743Z,2928.00
2019-05-14T08:08:32.746Z,2920.00
2019-05-14T08:09:32.772Z,2808.00
2019-05-14T08:10:32.780Z,2856.00
2019-05-14T08:11:32.818Z,2948.00
2019-05-14T08:12:32.805Z,2896.00
2019-05-14T08:13:32.825Z,2820.00
2019-05-14T08:14:41.816Z,2780.00
2019-05-14T08:15:32.856Z,2716.00
2019-05-14T08:16:32.898Z,3056.00
2019-05-14T08:17:32.887Z,3112.00
2019-05-14T08:18:32.897Z,3116.00
2019-05-14T08:19:34.478Z,3116.00
2019-05-14T08:20:32.930Z,3168.00
2019-05-14T08:21:32.955Z,3208.00
2019-05-14T08:22:32.950Z,3284.00
2019-05-14T08:23:32.973Z,3232.00
2019-05-14T08:24:33.118Z,3140.00
2019-05-14T08:25:33.131Z,3148.00
2019-05-14T08:26:33.012Z,1832.00
2019-05-14T08:27:33.030Z,3196.00
2019-05-14T08:28:33.045Z,3236.00
2019-05-14T08:29:33.059Z,3308.00
2019-05-14T08:30:33.072Z,3368.00
2019-05-14T08:31:33.079Z,3156.00
2019-05-14T08:32:33.094Z,3388.00
2019-05-14T08:33:33.113Z,1772.00
2019-05-14T08:34:33.125Z,1784.00
2019-05-14T08:35:35.126Z,2096.00
2019-05-14T08:36:33.153Z,2540.00
2019-05-14T08:37:33.168Z,2688.00
2019-05-14T08:38:33.202Z,4188.00
2019-05-14T08:39:33.197Z,2260.00
2019-05-14T08:40:33.214Z,2152.00
2019-05-14T08:41:33.236Z,2172.00
2019-05-14T08:42:34.380Z,2628.00
2019-05-14T08:43:33.261Z,4500.00
2019-05-14T08:44:33.296Z,4336.00
2019-05-14T08:45:33.286Z,4680.00
2019-05-14T08:46:33.312Z,4916.00
2019-05-14T08:48:21.889Z,5296.00
2019-05-14T08:49:36.205Z,5388.00
2019-05-14T08:50:21.927Z,5460.00
2019-05-14T08:51:21.935Z,5448.00
2019-05-14T08:52:21.947Z,5384.00
2019-05-14T08:53:21.962Z,5236.00
2019-05-14T08:54:21.974Z,5004.00
2019-05-14T08:55:21.984Z,4816.00
2019-05-14T08:56:22.010Z,4716.00
2019-05-14T08:57:22.111Z,4876.00
2019-05-14T08:58:22.076Z,2864.00
2019-05-14T08:59:22.321Z,2956.00
2019-05-14T09:00:22.074Z,3368.00
2019-05-14T09:01:22.104Z,3520.00
2019-05-14T09:02:22.173Z,4216.00
2019-05-14T09:03:22.218Z,3264.00
2019-05-14T09:04:22.962Z,4872.00
2019-05-14T09:05:22.137Z,4564.00
2019-05-14T09:06:22.159Z,3532.00
2019-05-14T09:07:22.167Z,3492.00
2019-05-14T09:08:22.211Z,4312.00
2019-05-14T09:09:22.402Z,3364.00
2019-05-14T09:10:22.212Z,3464.00
2019-05-14T09:11:25.507Z,4088.00
2019-05-14T09:12:22.265Z,4500.00
2019-05-14T09:13:22.279Z,3128.00
2019-05-14T09:14:22.270Z,2904.00
2019-05-14T09:15:22.289Z,2780.00
2019-05-14T09:16:38.465Z,2732.00
2019-05-14T09:17:22.317Z,2664.00
2019-05-14T09:18:22.357Z,2612.00
2019-05-14T09:19:22.349Z,2788.00
2019-05-14T09:20:22.365Z,3796.00
2019-05-14T09:21:22.382Z,4856.00
2019-05-14T09:22:22.916Z,4880.00
2019-05-14T09:23:23.292Z,4784.00
2019-05-14T09:24:22.425Z,2620.00
2019-05-14T09:25:22.439Z,2440.00
2019-05-14T09:26:22.461Z,2472.00
2019-05-14T09:27:22.467Z,2424.00
2019-05-14T09:28:22.490Z,2400.00
2019-05-14T09:29:26.058Z,2908.00
2019-05-14T09:30:22.514Z,4924.00
2019-05-14T09:31:22.530Z,5124.00
2019-05-14T09:32:22.582Z,3688.00
2019-05-14T09:33:24.297Z,5272.00
2019-05-14T09:34:22.573Z,5336.00
2019-05-14T09:35:22.593Z,3080.00
2019-05-14T09:36:24.221Z,2984.00
2019-05-14T09:37:22.624Z,3084.00
2019-05-14T09:38:22.650Z,3264.00
2019-05-14T09:39:22.675Z,3132.00
2019-05-14T09:40:22.667Z,3060.00
2019-05-14T09:41:22.692Z,3208.00
2019-05-14T09:42:22.699Z,3216.00
2019-05-14T09:43:22.724Z,3504.00
2019-05-14T09:44:22.729Z,3764.00
2019-05-14T09:45:22.739Z,2904.00
2019-05-14T09:46:22.762Z,2824.00
2019-05-14T09:47:22.769Z,2752.00
2019-05-14T09:48:22.787Z,2660.00
2019-05-14T09:49:22.804Z,2472.00
2019-05-14T09:50:23.716Z,2300.00
2019-05-14T09:51:22.841Z,2312.00
2019-05-14T09:52:23.396Z,2372.00
2019-05-14T09:53:22.959Z,2556.00
2019-05-14T09:54:22.884Z,3212.00
2019-05-14T09:55:22.892Z,5032.00
2019-05-14T09:56:22.909Z,4916.00
2019-05-14T09:57:23.136Z,4924.00
2019-05-14T09:58:22.947Z,4764.00
2019-05-14T09:59:22.962Z,3040.00
2019-05-14T10:00:22.968Z,4336.00
2019-05-14T10:01:23.164Z,4196.00
2019-05-14T10:02:23.648Z,4176.00
2019-05-14T10:03:23.018Z,2000.00
2019-05-14T10:04:23.551Z,1592.00
2019-05-14T10:05:23.191Z,1600.00
2019-05-14T10:06:23.084Z,1640.00
2019-05-14T10:07:23.070Z,1712.00
2019-05-14T10:08:23.114Z,1856.00
2019-05-14T10:09:23.112Z,2024.00
2019-05-14T10:10:23.138Z,2220.00
2019-05-14T10:11:23.329Z,2372.00
2019-05-14T10:12:23.165Z,4484.00
2019-05-14T10:13:23.207Z,3360.00
2019-05-14T10:14:23.203Z,4696.00
2019-05-14T10:15:23.203Z,4808.00
2019-05-14T10:16:23.224Z,4448.00
2019-05-14T10:17:23.227Z,4356.00
2019-05-14T10:18:23.244Z,4292.00
2019-05-14T10:19:23.270Z,4336.00
2019-05-14T10:20:36.399Z,1904.00
2019-05-14T10:21:23.285Z,1888.00
2019-05-14T10:22:23.302Z,2156.00
2019-05-14T10:23:23.310Z,2020.00
2019-05-14T10:24:23.331Z,2132.00
2019-05-14T10:25:23.340Z,3200.00
2019-05-14T10:26:23.360Z,4540.00
2019-05-14T10:27:23.385Z,2928.00
2019-05-14T10:28:23.464Z,4500.00
2019-05-14T10:29:23.401Z,4724.00
2019-05-14T10:30:23.432Z,4680.00
2019-05-14T10:31:23.444Z,4500.00
2019-05-14T10:32:23.451Z,3528.00
2019-05-14T10:33:23.468Z,3608.00
2019-05-14T10:34:23.478Z,1936.00
2019-05-14T10:35:39.046Z,2084.00
2019-05-14T10:36:23.516Z,3648.00
2019-05-14T10:37:23.530Z,1928.00
2019-05-14T10:38:23.565Z,1892.00
2019-05-14T10:39:23.553Z,4128.00
2019-05-14T10:40:23.584Z,4128.00
2019-05-14T10:41:23.587Z,4140.00
2019-05-14T10:42:23.602Z,3800.00
2019-05-14T10:43:23.627Z,4092.00
2019-05-14T10:44:23.629Z,3304.00
2019-05-14T10:46:23.818Z,2204.00
2019-05-14T10:47:23.684Z,2088.00
2019-05-14T10:48:23.904Z,2212.00
2019-05-14T10:49:23.955Z,2208.00
2019-05-14T10:50:23.730Z,3268.00
2019-05-14T10:51:23.739Z,4808.00
2019-05-14T10:52:23.764Z,2704.00
2019-05-14T10:53:23.768Z,2812.00
2019-05-14T10:54:25.763Z,4948.00
2019-05-14T10:55:23.798Z,4696.00
2019-05-14T10:56:23.907Z,4524.00
2019-05-14T10:57:23.856Z,4428.00
2019-05-14T10:58:23.849Z,4404.00
2019-05-14T10:59:23.864Z,4396.00
2019-05-14T11:00:23.870Z,4280.00
2019-05-14T11:01:23.884Z,4340.00
2019-05-14T11:02:23.903Z,2920.00
2019-05-14T11:03:23.928Z,2188.00
2019-05-14T11:04:24.681Z,3972.00
2019-05-14T11:05:24.889Z,2084.00
2019-05-14T11:06:23.968Z,4200.00
2019-05-14T11:08:23.992Z,2136.00
2019-05-14T11:09:23.998Z,2068.00
2019-05-14T11:10:24.035Z,4204.00
2019-05-14T11:11:24.030Z,2100.00
2019-05-14T11:12:24.045Z,4188.00
2019-05-14T11:13:24.057Z,4224.00
2019-05-14T11:14:24.075Z,2340.00
2019-05-14T11:15:24.094Z,2156.00
2019-05-14T11:16:24.104Z,4532.00
2019-05-14T11:17:24.128Z,4684.00
2019-05-14T11:18:24.135Z,2840.00
2019-05-14T11:19:24.151Z,2632.00
2019-05-14T11:20:24.178Z,2724.00
2019-05-14T11:21:26.859Z,2768.00
2019-05-14T11:22:24.198Z,4168.00
2019-05-14T11:23:24.210Z,5160.00
2019-05-14T11:24:24.229Z,5136.00
2019-05-14T11:25:24.247Z,5220.00
2019-05-14T11:26:24.929Z,5412.00
2019-05-14T11:27:24.267Z,5636.00
2019-05-14T11:28:24.282Z,5788.00
2019-05-14T11:29:24.310Z,5904.00
2019-05-14T11:30:24.319Z,5988.00
2019-05-14T11:31:24.339Z,5400.00
2019-05-14T11:32:24.352Z,5904.00
2019-05-14T11:33:24.361Z,5868.00
2019-05-14T11:34:24.382Z,5944.00
2019-05-14T11:35:24.393Z,5880.00
2019-05-14T11:36:24.411Z,6092.00
2019-05-14T11:37:24.423Z,3788.00
2019-05-14T11:38:33.632Z,5552.00
2019-05-14T11:39:24.455Z,5444.00
2019-05-14T11:40:24.468Z,5444.00
2019-05-14T11:41:24.493Z,5320.00
2019-05-14T11:42:24.528Z,5264.00
2019-05-14T11:43:24.521Z,5204.00
2019-05-14T11:44:24.531Z,4556.00
2019-05-14T11:45:24.552Z,2672.00
2019-05-14T11:46:39.421Z,2628.00
2019-05-14T11:47:24.580Z,2604.00
2019-05-14T11:48:24.595Z,2512.00
2019-05-14T11:49:24.610Z,2504.00
2019-05-14T11:50:24.634Z,3916.00
2019-05-14T11:51:56.217Z,4648.00
2019-05-14T11:52:24.655Z,4824.00
2019-05-14T11:53:24.675Z,4828.00
2019-05-14T11:54:24.691Z,4852.00
2019-05-14T11:55:24.700Z,4744.00
2019-05-14T11:56:24.714Z,4592.00
2019-05-14T11:57:24.735Z,4560.00
2019-05-14T11:58:24.755Z,4468.00
2019-05-14T11:59:24.765Z,4416.00
2019-05-14T12:00:26.087Z,4432.00
2019-05-14T12:01:24.798Z,4476.00
2019-05-14T12:02:24.825Z,4532.00
2019-05-14T12:03:24.825Z,4600.00
2019-05-14T12:04:24.839Z,4736.00
2019-05-14T12:05:24.859Z,4780.00
2019-05-14T12:06:24.899Z,4820.00
2019-05-14T12:07:24.892Z,4768.00
2019-05-14T12:08:24.902Z,4872.00
2019-05-14T12:09:24.920Z,4916.00
2019-05-14T12:10:24.944Z,4928.00
2019-05-14T12:11:25.155Z,4840.00
2019-05-14T12:12:24.992Z,4816.00
2019-05-14T12:13:27.226Z,4912.00
2019-05-14T12:14:24.999Z,4844.00
2019-05-14T12:15:25.018Z,5040.00
2019-05-14T12:16:25.043Z,5148.00
2019-05-14T12:17:25.048Z,3176.00
2019-05-14T12:18:25.068Z,5400.00
2019-05-14T12:19:25.093Z,5564.00
2019-05-14T12:20:25.101Z,5600.00
2019-05-14T12:21:28.817Z,5552.00
2019-05-14T12:22:25.122Z,5460.00
2019-05-14T12:23:25.537Z,5416.00
2019-05-14T12:25:38.793Z,5436.00
2019-05-14T12:26:38.861Z,5576.00
2019-05-14T12:27:39.081Z,5556.00
2019-05-14T12:28:38.969Z,5484.00
2019-05-14T12:29:39.837Z,5512.00
2019-05-14T12:30:39.543Z,4100.00
2019-05-14T12:31:38.869Z,4992.00
2019-05-14T12:32:40.026Z,6000.00
2019-05-14T12:33:39.844Z,4104.00
2019-05-14T12:34:39.006Z,6432.00
2019-05-14T12:35:40.229Z,6732.00
2019-05-14T12:36:39.070Z,6996.00
2019-05-14T12:37:39.196Z,7144.00
2019-05-14T12:38:38.988Z,4308.00
2019-05-14T12:39:38.997Z,4184.00
2019-05-14T12:40:39.005Z,4224.00